Time;durP1;ratioP1;P1;durP2;ratioP2;P2;SDS_P1;SDS_P2;PMS_P1;PMS_P2;Temp;Humidity;BMP_temperature;BMP_pressure;BME280_temperature;BME280_humidity;BME280_pressure;Samples;Min_cycle;Max_cycle;Signal;HPM_P1;HPM_P2
2023/10/26 00:01:53;;;;;;;;;;;;;;;15.98;96.33;99223.91;5111053;28;20285;-83
2023/10/26 00:04:18;;;;;;;;;;;;;;;15.93;96.44;99213.16;5111961;27;19927;-83
2023/10/26 00:06:44;;;;;;;;;;;;;;;15.85;97.39;99219.94;5116165;27;19916;-82
2023/10/26 00:09:09;;;;;;;;;;;;;;;15.80;97.28;99205.69;5121354;27;19972;-81
2023/10/26 00:11:34;;;;;;;;;;;;;;;15.70;98.57;99216.44;5118637;27;19919;-82
2023/10/26 00:14:00;;;;;;;;;;;;;;;15.67;97.33;99205.16;5122003;27;20346;-82
2023/10/26 00:16:25;;;;;;;;;;;;;;;15.57;98.26;99224.00;5126284;27;19923;-81
2023/10/26 00:18:50;;;;;;;;;;;;;;;15.50;99.00;99236.91;5128994;27;20440;-82
2023/10/26 00:21:15;;;;;;;;;;;;;;;15.15;100.00;99232.38;5125426;27;19971;-82
2023/10/26 00:23:41;;;;;;;;;;;;;;;15.24;100.00;99220.84;5106701;27;19919;-82
2023/10/26 00:26:06;;;;;;;;;;;;;;;15.64;98.47;99221.81;5102253;27;19899;-82
2023/10/26 00:28:31;;;;;;;;;;;;;;;15.67;97.46;99217.78;5109932;28;20022;-82
2023/10/26 00:30:56;;;;;;;;;;;;;;;15.72;97.83;99222.34;5111234;27;20281;-82
2023/10/26 00:33:22;;;;;;;;;;;;;;;15.40;99.71;99210.06;5115498;27;19952;-82
2023/10/26 00:35:47;;;;;;;;;;;;;;;15.21;100.00;99205.25;5111242;28;19916;-81
2023/10/26 00:38:12;;;;;;;;;;;;;;;15.30;100.00;99199.31;5127093;27;20353;-82
2023/10/26 00:40:38;;;;;;;;;;;;;;;15.50;100.00;99203.84;5111716;28;19999;-82
2023/10/26 00:43:06;;;;;;;;;;;;;;;15.54;99.96;99207.63;5113125;27;19923;-83
2023/10/26 00:45:33;;;;;;;;;;;;;;;15.58;99.76;99185.28;5113663;27;19923;-82
2023/10/26 00:47:59;;;;;;;;;;;;;;;15.43;99.97;99188.03;5111649;27;19912;-82
2023/10/26 00:50:24;;;;;;;;;;;;;;;14.48;100.00;99181.31;5112113;28;19916;-83
2023/10/26 00:52:50;;;;;;;;;;;;;;;14.72;100.00;99200.41;5124103;27;19911;-82
2023/10/26 00:55:16;;;;;;;;;;;;;;;14.76;100.00;99198.81;5126971;27;19942;-82
2023/10/26 00:57:41;;;;;;;;;;;;;;;15.11;100.00;99196.41;5116308;27;19964;-82
2023/10/26 01:00:07;;;;;;;;;;;;;;;15.15;100.00;99198.25;5121383;27;19972;-82
2023/10/26 01:02:33;;;;;;;;;;;;;;;14.52;100.00;99200.38;5120000;27;19911;-82
2023/10/26 01:04:58;;;;;;;;;;;;;;;14.64;100.00;99195.59;5114016;27;20052;-82
2023/10/26 01:07:24;;;;;;;;;;;;;;;14.97;100.00;99177.34;5107361;27;19916;-81
2023/10/26 01:09:49;;;;;;;;;;;;;;;14.51;100.00;99170.06;5125938;27;19923;-83
2023/10/26 01:12:16;;;;;;;;;;;;;;;14.49;100.00;99187.50;5110123;28;19922;-82
2023/10/26 01:14:42;;;;;;;;;;;;;;;14.88;100.00;99187.03;5118465;27;20011;-82
2023/10/26 01:17:07;;;;;;;;;;;;;;;14.45;100.00;99197.94;5118854;27;20006;-81
2023/10/26 01:19:40;;;;;;;;;;;;;;;14.66;100.00;99201.50;5109686;28;19912;-82
2023/10/26 01:22:05;;;;;;;;;;;;;;;14.81;100.00;99190.78;5093404;28;19916;-83
2023/10/26 01:24:30;;;;;;;;;;;;;;;14.66;100.00;99193.44;5114317;27;20014;-82
2023/10/26 01:26:55;;;;;;;;;;;;;;;13.76;100.00;99185.66;5110903;28;19967;-82
2023/10/26 01:29:21;;;;;;;;;;;;;;;13.83;100.00;99173.63;5110460;28;20373;-82
2023/10/26 01:31:47;;;;;;;;;;;;;;;14.37;100.00;99174.31;5125907;27;19923;-82
2023/10/26 01:34:12;;;;;;;;;;;;;;;14.53;100.00;99183.22;5113387;28;19920;-82
2023/10/26 01:36:38;;;;;;;;;;;;;;;14.53;100.00;99194.75;5123793;27;19937;-82
2023/10/26 01:39:03;;;;;;;;;;;;;;;14.30;100.00;99193.34;5139546;27;19911;-82
2023/10/26 01:41:32;;;;;;;;;;;;;;;14.36;100.00;99189.59;5125012;27;19919;-82
2023/10/26 01:43:58;;;;;;;;;;;;;;;14.56;100.00;99190.75;5114136;28;19923;-82
2023/10/26 01:46:23;;;;;;;;;;;;;;;14.57;100.00;99203.09;5113803;28;19923;-82
2023/10/26 01:48:48;;;;;;;;;;;;;;;14.43;100.00;99200.88;5109623;28;19947;-82
2023/10/26 01:51:15;;;;;;;;;;;;;;;14.21;100.00;99192.25;5112940;28;19927;-82
2023/10/26 01:53:40;;;;;;;;;;;;;;;14.36;100.00;99197.63;5109501;28;19919;-82
2023/10/26 01:56:06;;;;;;;;;;;;;;;14.24;100.00;99184.50;5113415;28;19930;-82
2023/10/26 01:58:31;;;;;;;;;;;;;;;14.35;100.00;99193.34;5108094;28;19919;-82
2023/10/26 02:00:56;;;;;;;;;;;;;;;14.16;100.00;99200.25;5109540;28;19964;-82
2023/10/26 02:03:21;;;;;;;;;;;;;;;13.94;100.00;99195.91;5111625;28;20306;-81
2023/10/26 02:05:47;;;;;;;;;;;;;;;14.27;100.00;99202.72;5109639;28;20273;-82
2023/10/26 02:08:12;;;;;;;;;;;;;;;14.12;100.00;99215.25;5110317;28;19916;-82
2023/10/26 02:10:37;;;;;;;;;;;;;;;14.07;100.00;99208.81;5112918;28;19915;-82
2023/10/26 02:13:03;;;;;;;;;;;;;;;14.34;100.00;99205.16;5124959;28;19923;-82
2023/10/26 02:15:28;;;;;;;;;;;;;;;14.40;100.00;99209.44;5113494;28;20003;-82
2023/10/26 02:17:54;;;;;;;;;;;;;;;14.44;100.00;99199.00;5121301;28;20364;-82
2023/10/26 02:20:19;;;;;;;;;;;;;;;14.37;100.00;99196.59;5110191;28;19972;-83
2023/10/26 02:22:44;;;;;;;;;;;;;;;14.45;100.00;99203.31;5125638;28;20074;-82
2023/10/26 02:25:12;;;;;;;;;;;;;;;14.41;100.00;99205.72;5109488;27;19923;-80
2023/10/26 02:27:37;;;;;;;;;;;;;;;13.93;100.00;99182.78;5113274;27;20361;-81
2023/10/26 02:30:03;;;;;;;;;;;;;;;14.09;100.00;99184.44;5112477;28;20010;-81
2023/10/26 02:32:28;;;;;;;;;;;;;;;14.03;100.00;99186.28;5113622;28;19916;-82
2023/10/26 02:34:53;;;;;;;;;;;;;;;14.00;100.00;99173.41;5112628;28;19926;-82
2023/10/26 02:37:19;;;;;;;;;;;;;;;13.66;100.00;99170.34;5130014;27;19912;-81
2023/10/26 02:39:45;;;;;;;;;;;;;;;13.92;100.00;99175.81;5140995;27;19962;-82
2023/10/26 02:42:10;;;;;;;;;;;;;;;14.11;100.00;99165.41;5119270;27;19920;-82
2023/10/26 02:44:36;;;;;;;;;;;;;;;14.25;100.00;99166.50;5114488;28;19954;-81
2023/10/26 02:47:01;;;;;;;;;;;;;;;14.32;100.00;99159.00;5112442;28;19915;-81
2023/10/26 02:49:27;;;;;;;;;;;;;;;13.95;100.00;99173.38;5112447;28;19923;-82
2023/10/26 02:51:52;;;;;;;;;;;;;;;13.65;100.00;99169.53;5111768;28;19916;-80
2023/10/26 02:54:17;;;;;;;;;;;;;;;13.98;100.00;99169.41;5120332;27;19915;-81
2023/10/26 02:56:42;;;;;;;;;;;;;;;13.70;100.00;99186.69;5116564;27;20031;-81
2023/10/26 02:59:08;;;;;;;;;;;;;;;13.35;100.00;99170.19;5122653;27;20382;-81
2023/10/26 03:01:33;;;;;;;;;;;;;;;13.09;100.00;99179.06;5115837;27;19924;-81
2023/10/26 03:04:00;;;;;;;;;;;;;;;12.84;100.00;99185.84;5112338;28;19930;-83
2023/10/26 03:06:25;;;;;;;;;;;;;;;13.36;100.00;99181.69;5113741;27;19976;-83
2023/10/26 03:08:50;;;;;;;;;;;;;;;13.17;100.00;99187.44;5111833;28;19919;-83
2023/10/26 03:11:16;;;;;;;;;;;;;;;13.34;100.00;99189.16;5127147;27;19916;-83
2023/10/26 03:13:41;;;;;;;;;;;;;;;13.03;100.00;99179.03;5111301;27;19915;-83
2023/10/26 03:16:06;;;;;;;;;;;;;;;13.00;100.00;99173.41;5112253;27;19916;-83
2023/10/26 03:18:32;;;;;;;;;;;;;;;12.97;100.00;99174.69;5111539;27;20340;-81
2023/10/26 03:20:58;;;;;;;;;;;;;;;12.97;100.00;99168.53;5125567;27;19972;-83
2023/10/26 03:23:23;;;;;;;;;;;;;;;13.26;100.00;99164.47;5128058;27;20361;-81
2023/10/26 03:25:49;;;;;;;;;;;;;;;12.99;100.00;99177.13;5116187;27;19919;-82
2023/10/26 03:28:14;;;;;;;;;;;;;;;13.02;100.00;99163.25;5111248;28;20440;-83
2023/10/26 03:30:39;;;;;;;;;;;;;;;13.07;100.00;99160.59;5122556;27;19915;-82
2023/10/26 03:33:04;;;;;;;;;;;;;;;12.81;100.00;99163.09;5127323;27;19919;-82
2023/10/26 03:35:32;;;;;;;;;;;;;;;13.20;100.00;99162.84;5115626;27;19939;-82
2023/10/26 03:37:58;;;;;;;;;;;;;;;13.14;100.00;99158.50;5114574;27;19908;-83
2023/10/26 03:40:23;;;;;;;;;;;;;;;12.65;100.00;99167.50;5120729;27;19948;-83
2023/10/26 03:42:50;;;;;;;;;;;;;;;13.19;100.00;99161.19;5119326;27;19922;-83
2023/10/26 03:45:16;;;;;;;;;;;;;;;13.57;100.00;99169.22;5111799;28;20008;-83
2023/10/26 03:47:41;;;;;;;;;;;;;;;13.61;100.00;99162.28;5114523;27;20459;-83
2023/10/26 03:50:07;;;;;;;;;;;;;;;13.39;100.00;99162.44;5114948;27;19919;-83
2023/10/26 03:52:32;;;;;;;;;;;;;;;13.25;100.00;99162.06;5121699;27;19923;-83
2023/10/26 03:54:57;;;;;;;;;;;;;;;13.52;100.00;99167.31;5109998;28;20353;-83
2023/10/26 03:57:23;;;;;;;;;;;;;;;13.81;100.00;99172.25;5119893;27;20280;-84
2023/10/26 03:59:50;;;;;;;;;;;;;;;13.74;100.00;99167.16;5116770;27;19916;-82
2023/10/26 04:02:15;;;;;;;;;;;;;;;13.06;100.00;99145.59;5110193;28;19962;-83
2023/10/26 04:04:42;;;;;;;;;;;;;;;13.41;100.00;99142.34;5113187;27;19951;-83
2023/10/26 04:07:07;;;;;;;;;;;;;;;13.82;100.00;99122.97;5113523;27;20002;-83
2023/10/26 04:09:33;;;;;;;;;;;;;;;14.12;100.00;99129.47;5111116;28;20015;-84
2023/10/26 04:11:58;;;;;;;;;;;;;;;14.06;100.00;99132.16;5127564;27;19922;-83
2023/10/26 04:14:24;;;;;;;;;;;;;;;14.23;100.00;99131.13;5128178;27;19915;-83
2023/10/26 04:16:50;;;;;;;;;;;;;;;13.61;100.00;99122.91;5115663;27;20357;-83
2023/10/26 04:19:15;;;;;;;;;;;;;;;13.57;100.00;99108.41;5116454;27;19915;-84
2023/10/26 04:21:40;;;;;;;;;;;;;;;13.89;100.00;99102.06;5117701;27;19957;-82
2023/10/26 04:24:06;;;;;;;;;;;;;;;13.70;100.00;99106.31;5111306;27;19916;-83
2023/10/26 04:26:31;;;;;;;;;;;;;;;13.83;100.00;99113.84;5113564;27;19922;-83
2023/10/26 04:28:59;;;;;;;;;;;;;;;13.68;100.00;99127.22;5112043;27;19919;-83
2023/10/26 04:31:25;;;;;;;;;;;;;;;13.88;100.00;99121.91;5117200;27;19965;-84
2023/10/26 04:33:51;;;;;;;;;;;;;;;13.85;100.00;99101.00;5104949;28;19923;-83
2023/10/26 04:36:16;;;;;;;;;;;;;;;13.25;100.00;99122.69;5113529;27;20002;-82
2023/10/26 04:38:41;;;;;;;;;;;;;;;13.36;100.00;99118.25;5109525;27;19979;-83
2023/10/26 04:41:07;;;;;;;;;;;;;;;13.42;100.00;99122.56;5110535;28;19923;-83
2023/10/26 04:43:32;;;;;;;;;;;;;;;13.56;100.00;99106.00;5117665;27;19919;-83
2023/10/26 04:45:57;;;;;;;;;;;;;;;13.46;100.00;99123.66;5123265;27;19920;-83
2023/10/26 04:48:23;;;;;;;;;;;;;;;13.82;100.00;99131.00;5119400;27;19947;-83
2023/10/26 04:50:48;;;;;;;;;;;;;;;13.96;100.00;99137.50;5117714;28;20467;-83
2023/10/26 04:53:13;;;;;;;;;;;;;;;13.52;100.00;99113.75;5118119;28;19916;-83
2023/10/26 04:55:39;;;;;;;;;;;;;;;13.52;100.00;99126.34;5116611;28;19916;-83
2023/10/26 04:58:04;;;;;;;;;;;;;;;13.48;100.00;99134.06;5119970;27;19916;-83
2023/10/26 05:00:30;;;;;;;;;;;;;;;13.95;100.00;99135.88;5116355;28;19947;-84
2023/10/26 05:02:55;;;;;;;;;;;;;;;13.95;100.00;99118.97;5133450;27;20332;-84
2023/10/26 05:05:21;;;;;;;;;;;;;;;13.86;100.00;99105.31;5124291;27;19964;-83
2023/10/26 05:07:46;;;;;;;;;;;;;;;14.04;100.00;99102.13;5125443;27;19968;-84
2023/10/26 05:10:12;;;;;;;;;;;;;;;14.21;100.00;99122.53;5134797;27;19918;-84
2023/10/26 05:12:38;;;;;;;;;;;;;;;14.32;100.00;99129.50;5116821;28;19920;-84
2023/10/26 05:15:04;;;;;;;;;;;;;;;14.18;100.00;99136.44;5134389;27;19994;-85
2023/10/26 05:17:29;;;;;;;;;;;;;;;14.14;100.00;99132.69;5121549;27;19941;-84
2023/10/26 05:19:54;;;;;;;;;;;;;;;14.29;100.00;99130.06;5122975;27;19915;-83
2023/10/26 05:22:19;;;;;;;;;;;;;;;14.24;100.00;99146.13;5128453;27;19994;-84
2023/10/26 05:24:45;;;;;;;;;;;;;;;14.07;100.00;99149.84;5133481;27;19952;-84
2023/10/26 05:27:10;;;;;;;;;;;;;;;14.28;100.00;99160.59;5113836;28;20970;-83
2023/10/26 05:29:36;;;;;;;;;;;;;;;13.91;100.00;99171.50;5128071;27;19920;-82
2023/10/26 05:32:01;;;;;;;;;;;;;;;13.72;100.00;99182.69;5117368;27;19954;-83
2023/10/26 05:34:26;;;;;;;;;;;;;;;13.70;100.00;99186.69;5119016;27;19919;-83
2023/10/26 05:36:52;;;;;;;;;;;;;;;13.73;100.00;99180.81;5111562;27;20428;-84
2023/10/26 05:39:17;;;;;;;;;;;;;;;13.48;100.00;99170.78;5112954;27;19954;-83
2023/10/26 05:41:43;;;;;;;;;;;;;;;13.98;100.00;99178.25;5129135;27;19915;-83
2023/10/26 05:44:09;;;;;;;;;;;;;;;13.85;100.00;99176.88;5122201;27;20331;-84
2023/10/26 05:46:35;;;;;;;;;;;;;;;13.63;100.00;99174.34;5108895;28;20399;-82
2023/10/26 05:49:00;;;;;;;;;;;;;;;13.62;100.00;99174.59;5111868;27;20614;-82
2023/10/26 05:51:25;;;;;;;;;;;;;;;13.80;100.00;99163.44;5107634;28;20010;-82
2023/10/26 05:53:51;;;;;;;;;;;;;;;13.86;100.00;99158.91;5108543;28;19924;-82
2023/10/26 05:56:16;;;;;;;;;;;;;;;13.97;100.00;99154.38;5109164;28;19919;-82
2023/10/26 05:58:41;;;;;;;;;;;;;;;14.35;100.00;99158.50;5110468;28;20361;-82
2023/10/26 06:01:06;;;;;;;;;;;;;;;14.57;100.00;99168.22;5111467;28;19919;-83
2023/10/26 06:03:32;;;;;;;;;;;;;;;14.36;100.00;99178.88;5108547;28;20037;-82
2023/10/26 06:05:58;;;;;;;;;;;;;;;14.19;100.00;99191.72;5113066;28;19965;-81
2023/10/26 06:08:23;;;;;;;;;;;;;;;14.43;100.00;99200.09;5117179;27;20014;-83
2023/10/26 06:10:49;;;;;;;;;;;;;;;14.40;100.00;99214.00;5113551;28;19998;-82
2023/10/26 06:13:14;;;;;;;;;;;;;;;14.16;100.00;99224.41;5113354;27;20327;-83
2023/10/26 06:15:39;;;;;;;;;;;;;;;13.95;100.00;99227.00;5111965;27;19967;-81
2023/10/26 06:18:05;;;;;;;;;;;;;;;14.28;100.00;99227.66;5113441;27;19919;-83
2023/10/26 06:20:30;;;;;;;;;;;;;;;14.30;100.00;99238.94;5114222;27;19941;-83
2023/10/26 06:22:55;;;;;;;;;;;;;;;14.55;100.00;99229.38;5111793;28;20517;-83
2023/10/26 06:25:21;;;;;;;;;;;;;;;14.43;100.00;99241.13;5110685;28;20380;-82
2023/10/26 06:27:47;;;;;;;;;;;;;;;14.53;100.00;99242.22;5123856;27;19926;-83
2023/10/26 06:30:12;;;;;;;;;;;;;;;14.60;100.00;99232.06;5119892;27;19969;-83
2023/10/26 06:32:37;;;;;;;;;;;;;;;14.65;100.00;99229.41;5111976;28;19920;-82
2023/10/26 06:35:03;;;;;;;;;;;;;;;14.78;100.00;99226.19;5112284;27;19942;-82
2023/10/26 06:37:28;;;;;;;;;;;;;;;14.92;100.00;99241.78;5130636;27;20748;-82
2023/10/26 06:39:54;;;;;;;;;;;;;;;15.04;100.00;99253.88;5115359;27;19922;-82
2023/10/26 06:42:19;;;;;;;;;;;;;;;14.86;100.00;99257.06;5111474;28;19939;-82
2023/10/26 06:44:44;;;;;;;;;;;;;;;14.83;100.00;99269.16;5111645;27;20000;-82
2023/10/26 06:47:09;;;;;;;;;;;;;;;14.92;100.00;99271.31;5120123;27;19930;-82
2023/10/26 06:49:35;;;;;;;;;;;;;;;14.93;100.00;99265.66;5107760;28;19978;-82
2023/10/26 06:52:01;;;;;;;;;;;;;;;15.01;100.00;99277.75;5107214;27;19927;-85
2023/10/26 06:54:26;;;;;;;;;;;;;;;15.07;100.00;99268.63;5112748;27;20288;-82
2023/10/26 06:56:52;;;;;;;;;;;;;;;15.12;100.00;99268.66;5111360;27;19924;-84
2023/10/26 06:59:17;;;;;;;;;;;;;;;15.31;100.00;99278.84;5106413;27;20009;-83
2023/10/26 07:01:44;;;;;;;;;;;;;;;15.37;100.00;99275.88;5111602;28;20312;-84
2023/10/26 07:04:09;;;;;;;;;;;;;;;15.42;100.00;99277.75;5111960;28;19927;-83
2023/10/26 07:06:35;;;;;;;;;;;;;;;15.52;100.00;99263.50;5110023;28;19928;-83
2023/10/26 07:09:01;;;;;;;;;;;;;;;15.70;100.00;99248.69;5113219;27;19915;-85
2023/10/26 07:11:26;;;;;;;;;;;;;;;15.71;100.00;99239.53;5113561;27;19915;-83
2023/10/26 07:13:52;;;;;;;;;;;;;;;15.72;100.00;99242.00;5111686;27;20022;-83
2023/10/26 07:16:17;;;;;;;;;;;;;;;15.61;100.00;99259.19;5112613;27;19915;-84
2023/10/26 07:18:43;;;;;;;;;;;;;;;15.81;100.00;99266.44;5113697;27;19915;-84
2023/10/26 07:21:08;;;;;;;;;;;;;;;15.85;100.00;99262.13;5114349;27;19915;-83
2023/10/26 07:23:34;;;;;;;;;;;;;;;15.93;100.00;99268.81;5120072;27;19971;-82
2023/10/26 07:25:59;;;;;;;;;;;;;;;16.06;100.00;99279.81;5109084;28;20336;-83
2023/10/26 07:28:25;;;;;;;;;;;;;;;16.17;100.00;99280.56;5110145;28;19945;-83
2023/10/26 07:30:53;;;;;;;;;;;;;;;16.26;100.00;99261.97;5110870;28;19947;-83
2023/10/26 07:33:19;;;;;;;;;;;;;;;16.30;100.00;99246.88;5115351;27;19998;-84
2023/10/26 07:35:50;;;;;;;;;;;;;;;16.28;100.00;99238.28;5110765;28;20046;-83
2023/10/26 07:38:16;;;;;;;;;;;;;;;16.24;100.00;99245.28;5113612;27;19915;-84
2023/10/26 07:40:47;;;;;;;;;;;;;;;16.32;100.00;99246.63;5114686;27;20433;-82
2023/10/26 07:43:12;;;;;;;;;;;;;;;16.39;100.00;99239.84;5111573;28;19916;-84
2023/10/26 07:45:38;;;;;;;;;;;;;;;16.39;100.00;99229.09;5106513;28;19915;-83
2023/10/26 07:48:03;;;;;;;;;;;;;;;16.44;100.00;99212.09;5113064;27;19919;-84
2023/10/26 07:50:28;;;;;;;;;;;;;;;16.40;100.00;99222.63;5110918;28;19915;-83
2023/10/26 07:52:54;;;;;;;;;;;;;;;16.19;100.00;99231.88;5111184;28;19911;-84
2023/10/26 07:55:19;;;;;;;;;;;;;;;16.31;100.00;99235.06;5110755;27;19912;-83
2023/10/26 07:57:45;;;;;;;;;;;;;;;16.56;100.00;99219.84;5122065;27;19916;-83
2023/10/26 08:00:11;;;;;;;;;;;;;;;16.78;100.00;99208.66;5109152;27;20391;-84
2023/10/26 08:02:37;;;;;;;;;;;;;;;16.77;100.00;99202.44;5108571;27;19920;-83
2023/10/26 08:05:02;;;;;;;;;;;;;;;16.80;100.00;99203.81;5110369;27;19979;-83
2023/10/26 08:07:27;;;;;;;;;;;;;;;17.02;100.00;99208.75;5108977;28;19926;-83
2023/10/26 08:09:53;;;;;;;;;;;;;;;17.22;100.00;99202.38;5103950;28;19923;-84
2023/10/26 08:12:18;;;;;;;;;;;;;;;17.18;100.00;99191.41;5109446;27;19978;-83
2023/10/26 08:14:44;;;;;;;;;;;;;;;17.18;100.00;99186.00;5116541;27;20413;-83
2023/10/26 08:17:09;;;;;;;;;;;;;;;17.38;100.00;99193.06;5114870;27;19916;-83
2023/10/26 08:19:35;;;;;;;;;;;;;;;17.34;100.00;99204.69;5110787;27;19927;-83
2023/10/26 08:22:00;;;;;;;;;;;;;;;17.56;100.00;99205.00;5110913;28;19915;-84
2023/10/26 08:24:25;;;;;;;;;;;;;;;17.50;100.00;99230.41;5124590;27;20421;-83
2023/10/26 08:26:51;;;;;;;;;;;;;;;17.65;99.98;99240.22;5127143;27;19919;-83
2023/10/26 08:29:17;;;;;;;;;;;;;;;18.03;96.71;99238.50;5111295;27;19916;-83
2023/10/26 08:31:42;;;;;;;;;;;;;;;18.10;96.04;99245.44;5114788;27;19922;-83
2023/10/26 08:34:07;;;;;;;;;;;;;;;18.12;96.58;99248.63;5111285;28;19916;-83
2023/10/26 08:36:32;;;;;;;;;;;;;;;18.17;95.12;99240.50;5109710;28;19916;-84
2023/10/26 08:38:58;;;;;;;;;;;;;;;18.03;96.77;99238.50;5112698;27;20354;-83
2023/10/26 08:41:23;;;;;;;;;;;;;;;18.43;94.26;99241.78;5123663;27;19967;-83
2023/10/26 08:43:48;;;;;;;;;;;;;;;18.20;96.52;99239.91;5126144;27;19915;-83
2023/10/26 08:46:17;;;;;;;;;;;;;;;18.32;98.42;99244.88;5124103;27;19915;-83
2023/10/26 08:48:44;;;;;;;;;;;;;;;18.22;95.72;99202.63;5121933;27;19923;-83
2023/10/26 08:51:09;;;;;;;;;;;;;;;18.48;96.48;99238.97;5110010;28;20006;-84
2023/10/26 08:53:35;;;;;;;;;;;;;;;18.42;95.76;99239.34;5125888;27;20002;-83
2023/10/26 08:56:01;;;;;;;;;;;;;;;18.45;96.86;99239.59;5109603;28;19947;-83
2023/10/26 08:58:26;;;;;;;;;;;;;;;18.53;95.84;99235.44;5108105;28;19961;-83
2023/10/26 09:00:52;;;;;;;;;;;;;;;18.60;95.08;99246.66;5111369;27;20415;-83
2023/10/26 09:03:18;;;;;;;;;;;;;;;18.36;95.54;99245.91;5109312;27;20381;-83
2023/10/26 09:05:56;;;;;;;;;;;;;;;18.55;94.10;99243.22;5118792;27;19919;-83
2023/10/26 09:08:27;;;;;;;;;;;;;;;18.52;95.06;99230.31;5125767;27;19919;-83
2023/10/26 09:10:52;;;;;;;;;;;;;;;18.70;92.44;99232.22;5112952;27;20392;-83
2023/10/26 09:13:32;;;;;;;;;;;;;;;18.72;92.83;99219.22;5109895;27;19922;-83
2023/10/26 09:15:58;;;;;;;;;;;;;;;18.93;91.99;99216.22;5109375;28;19952;-83
2023/10/26 09:18:24;;;;;;;;;;;;;;;19.14;88.08;99209.38;5104500;28;20362;-83
2023/10/26 09:21:03;;;;;;;;;;;;;;;19.04;89.72;99206.84;5117074;27;19926;-83
2023/10/26 09:23:30;;;;;;;;;;;;;;;18.96;88.94;99205.63;5109267;27;19919;-83
2023/10/26 09:26:00;;;;;;;;;;;;;;;19.22;88.14;99197.09;5107315;28;19938;-84
2023/10/26 09:28:25;;;;;;;;;;;;;;;19.58;84.29;99189.13;5107417;28;20010;-84
2023/10/26 09:30:55;;;;;;;;;;;;;;;19.40;85.55;99187.31;5107932;28;20014;-83
2023/10/26 09:33:22;;;;;;;;;;;;;;;19.31;85.79;99191.78;5111862;27;19919;-83
2023/10/26 09:35:50;;;;;;;;;;;;;;;19.03;88.75;99205.25;5107339;28;19926;-84
2023/10/26 09:38:21;;;;;;;;;;;;;;;19.02;88.63;99203.63;5109510;28;20311;-83
2023/10/26 09:40:47;;;;;;;;;;;;;;;19.14;87.08;99203.97;5109392;27;19931;-82
2023/10/26 09:43:12;;;;;;;;;;;;;;;19.51;84.44;99204.94;5107039;28;19967;-83
2023/10/26 09:45:37;;;;;;;;;;;;;;;19.58;84.15;99199.94;5107510;28;20403;-82
2023/10/26 09:48:05;;;;;;;;;;;;;;;19.25;85.50;99216.22;5108279;28;19915;-83
2023/10/26 09:50:38;;;;;;;;;;;;;;;19.65;84.95;99208.44;5124519;27;19999;-83
2023/10/26 09:53:07;;;;;;;;;;;;;;;19.77;83.03;99197.16;5116130;27;20008;-83
2023/10/26 09:55:33;;;;;;;;;;;;;;;19.96;81.26;99180.84;5106183;27;19911;-82
2023/10/26 09:58:00;;;;;;;;;;;;;;;19.98;81.47;99175.91;5121782;27;19916;-82
2023/10/26 10:00:33;;;;;;;;;;;;;;;19.92;82.21;99170.88;5107884;27;20006;-83
2023/10/26 10:03:13;;;;;;;;;;;;;;;19.91;81.67;99182.84;5116494;28;19919;-83
2023/10/26 10:05:39;;;;;;;;;;;;;;;19.69;84.69;99173.47;5111730;28;20470;-83
2023/10/26 10:08:05;;;;;;;;;;;;;;;19.73;84.03;99173.72;5107379;28;20014;-83
2023/10/26 10:10:30;;;;;;;;;;;;;;;19.54;84.73;99161.06;5109000;28;19920;-83
2023/10/26 10:12:56;;;;;;;;;;;;;;;19.48;85.59;99173.09;5107039;28;19935;-84
2023/10/26 10:15:41;;;;;;;;;;;;;;;19.46;85.84;99161.78;5108740;28;19941;-83
2023/10/26 10:18:07;;;;;;;;;;;;;;;19.28;87.28;99158.03;5120573;28;19961;-83
2023/10/26 10:20:34;;;;;;;;;;;;;;;18.96;88.18;99161.59;5108043;28;19920;-83
2023/10/26 10:22:59;;;;;;;;;;;;;;;19.19;87.71;99143.63;5108334;28;19916;-83
2023/10/26 10:25:43;;;;;;;;;;;;;;;19.35;87.34;99138.72;5107336;28;19927;-83
2023/10/26 10:28:11;;;;;;;;;;;;;;;19.42;88.50;99125.63;5107315;28;19958;-83
2023/10/26 10:30:52;;;;;;;;;;;;;;;19.38;85.97;99119.22;5106454;28;20010;-83
2023/10/26 10:33:27;;;;;;;;;;;;;;;19.51;86.31;99102.16;5114892;28;19915;-81
2023/10/26 10:36:03;;;;;;;;;;;;;;;19.33;87.68;99106.59;5113767;28;19920;-83
2023/10/26 10:38:29;;;;;;;;;;;;;;;19.37;86.16;99095.97;5093337;28;19915;-83
2023/10/26 10:40:54;;;;;;;;;;;;;;;19.64;84.90;99106.78;5110183;28;20365;-84
2023/10/26 10:43:32;;;;;;;;;;;;;;;19.65;84.85;99105.66;5109787;28;19972;-84
2023/10/26 10:46:10;;;;;;;;;;;;;;;19.76;84.35;99108.22;5123792;27;19916;-84
2023/10/26 10:48:37;;;;;;;;;;;;;;;19.70;83.67;99087.75;5127575;27;20007;-83
2023/10/26 10:51:03;;;;;;;;;;;;;;;19.54;84.01;99074.53;5113839;27;20388;-84
2023/10/26 10:53:31;;;;;;;;;;;;;;;19.59;84.25;99070.91;5114402;27;19926;-83
2023/10/26 10:55:58;;;;;;;;;;;;;;;19.65;84.02;99081.31;5139389;27;20372;-84
2023/10/26 10:58:23;;;;;;;;;;;;;;;19.63;83.68;99088.16;5116835;27;19915;-84
2023/10/26 11:00:49;;;;;;;;;;;;;;;19.54;84.32;99069.13;5111838;27;20008;-83
2023/10/26 11:03:18;;;;;;;;;;;;;;;19.56;83.76;99077.75;5115616;27;19923;-84
2023/10/26 11:05:43;;;;;;;;;;;;;;;19.50;83.52;99065.44;5127704;27;19936;-82
2023/10/26 11:08:09;;;;;;;;;;;;;;;19.70;90.51;99068.81;5112742;27;20014;-83
2023/10/26 11:10:34;;;;;;;;;;;;;;;19.39;88.05;99066.72;5109672;28;19927;-83
2023/10/26 11:13:00;;;;;;;;;;;;;;;19.25;89.88;99053.25;5111208;28;20442;-84
2023/10/26 11:15:31;;;;;;;;;;;;;;;19.42;86.67;99049.91;5112234;28;20311;-83
2023/10/26 11:17:56;;;;;;;;;;;;;;;19.47;86.45;99041.69;5110344;28;19915;-83
2023/10/26 11:20:37;;;;;;;;;;;;;;;19.48;85.62;99043.31;5123632;27;19923;-84
2023/10/26 11:23:07;;;;;;;;;;;;;;;19.52;83.44;99033.47;5117578;27;20012;-84
2023/10/26 11:25:33;;;;;;;;;;;;;;;19.89;80.84;99023.50;5091802;28;19985;-85
2023/10/26 11:27:58;;;;;;;;;;;;;;;19.90;82.53;99022.41;5091755;28;20608;-84
2023/10/26 11:30:24;;;;;;;;;;;;;;;19.75;80.96;99028.16;5111190;27;20357;-83
2023/10/26 11:32:49;;;;;;;;;;;;;;;20.06;81.24;99026.34;5114706;27;19916;-84
2023/10/26 11:35:17;;;;;;;;;;;;;;;20.26;79.06;99024.25;5109416;28;19911;-85
2023/10/26 11:37:47;;;;;;;;;;;;;;;20.26;78.66;99013.41;5124597;27;20015;-86
2023/10/26 11:40:14;;;;;;;;;;;;;;;20.43;76.82;99002.69;5121690;27;19919;-84
2023/10/26 11:42:50;;;;;;;;;;;;;;;20.50;77.43;98994.13;5118954;27;19951;-83
2023/10/26 11:45:17;;;;;;;;;;;;;;;20.84;75.52;98987.28;5111620;28;20272;-82
2023/10/26 11:47:47;;;;;;;;;;;;;;;20.95;74.99;98987.81;5126681;27;19923;-84
2023/10/26 11:50:23;;;;;;;;;;;;;;;21.05;73.29;98990.22;5111952;27;19920;-85
2023/10/26 11:52:50;;;;;;;;;;;;;;;21.33;72.00;98985.34;5111288;28;19915;-84
2023/10/26 11:55:15;;;;;;;;;;;;;;;21.31;70.54;98984.06;5114136;27;19916;-85
2023/10/26 11:57:41;;;;;;;;;;;;;;;21.21;71.04;98977.84;5126269;27;19927;-84
2023/10/26 12:00:07;;;;;;;;;;;;;;;21.23;70.58;98975.59;5117688;27;19921;-84
2023/10/26 12:02:33;;;;;;;;;;;;;;;21.09;71.23;98964.09;5124369;27;19923;-84
2023/10/26 12:04:59;;;;;;;;;;;;;;;21.40;70.14;98952.34;5122708;27;19932;-83
2023/10/26 12:07:24;;;;;;;;;;;;;;;21.46;69.94;98957.31;5116915;27;20323;-85
2023/10/26 12:09:50;;;;;;;;;;;;;;;21.40;69.74;98958.56;5111446;27;19912;-83
2023/10/26 12:12:15;;;;;;;;;;;;;;;21.48;70.45;98956.22;5117142;27;19915;-84
2023/10/26 12:14:41;;;;;;;;;;;;;;;21.39;69.70;98945.31;5129666;27;19915;-85
2023/10/26 12:17:07;;;;;;;;;;;;;;;21.10;70.66;98954.03;5120725;27;19999;-85
2023/10/26 12:19:32;;;;;;;;;;;;;;;21.24;70.51;98950.06;5129394;27;20010;-84
2023/10/26 12:21:58;;;;;;;;;;;;;;;21.67;68.26;98941.19;5117215;27;19916;-84
2023/10/26 12:24:23;;;;;;;;;;;;;;;21.63;69.28;98940.22;5116098;27;19915;-84
2023/10/26 12:26:54;;;;;;;;;;;;;;;21.69;68.10;98940.09;5110724;28;19919;-82
2023/10/26 12:29:20;;;;;;;;;;;;;;;21.84;67.01;98945.00;5112143;28;19916;-84
2023/10/26 12:31:47;;;;;;;;;;;;;;;21.59;67.62;98942.00;5141786;27;19919;-84
2023/10/26 12:34:12;;;;;;;;;;;;;;;21.51;67.25;98940.06;5115369;27;19915;-84
2023/10/26 12:36:38;;;;;;;;;;;;;;;21.80;68.20;98935.91;5114915;27;19987;-84